sensor_id;sensor_type;location;lat;lon;timestamp;pressure;altitude;pressure_sealevel;temperature;humidity
73101;BME280;61288;53.446;-2.266;2024-03-17T00:00:03;102482.50;;;8.72;100.00
73101;BME280;61288;53.446;-2.266;2024-03-17T00:02:30;102492.81;;;8.76;100.00
73101;BME280;61288;53.446;-2.266;2024-03-17T00:04:55;102482.47;;;8.76;100.00
73101;BME280;61288;53.446;-2.266;2024-03-17T00:07:21;102489.34;;;8.80;100.00
73101;BME280;61288;53.446;-2.266;2024-03-17T00:09:46;102497.09;;;8.84;100.00
73101;BME280;61288;53.446;-2.266;2024-03-17T00:12:12;102497.94;;;8.89;100.00
73101;BME280;61288;53.446;-2.266;2024-03-17T00:14:37;102503.09;;;8.92;100.00
73101;BME280;61288;53.446;-2.266;2024-03-17T00:17:07;102495.34;;;8.93;100.00
73101;BME280;61288;53.446;-2.266;2024-03-17T00:19:33;102497.06;;;8.96;100.00
73101;BME280;61288;53.446;-2.266;2024-03-17T00:21:58;102490.16;;;8.98;100.00
73101;BME280;61288;53.446;-2.266;2024-03-17T00:24:24;102492.72;;;9.00;100.00
73101;BME280;61288;53.446;-2.266;2024-03-17T00:26:50;102485.81;;;9.02;100.00
73101;BME280;61288;53.446;-2.266;2024-03-17T00:29:15;102484.94;;;9.03;100.00
73101;BME280;61288;53.446;-2.266;2024-03-17T00:31:48;102476.31;;;9.05;100.00
73101;BME280;61288;53.446;-2.266;2024-03-17T00:34:13;102483.19;;;9.09;100.00
73101;BME280;61288;53.446;-2.266;2024-03-17T00:36:40;102480.56;;;9.11;100.00
73101;BME280;61288;53.446;-2.266;2024-03-17T00:39:06;102471.97;;;9.12;100.00
73101;BME280;61288;53.446;-2.266;2024-03-17T00:41:31;102471.94;;;9.14;100.00
73101;BME280;61288;53.446;-2.266;2024-03-17T00:43:57;102463.31;;;9.15;100.00
73101;BME280;61288;53.446;-2.266;2024-03-17T00:46:22;102456.41;;;9.18;100.00
73101;BME280;61288;53.446;-2.266;2024-03-17T00:48:48;102465.88;;;9.22;100.00
73101;BME280;61288;53.446;-2.266;2024-03-17T00:51:14;102450.34;;;9.22;100.00
73101;BME280;61288;53.446;-2.266;2024-03-17T00:53:40;102451.19;;;9.24;100.00
73101;BME280;61288;53.446;-2.266;2024-03-17T00:56:06;102451.16;;;9.26;100.00
73101;BME280;61288;53.446;-2.266;2024-03-17T00:58:31;102442.53;;;9.27;100.00
73101;BME280;61288;53.446;-2.266;2024-03-17T01:00:57;102439.94;;;9.27;100.00
73101;BME280;61288;53.446;-2.266;2024-03-17T01:03:22;102431.34;;;9.28;100.00
73101;BME280;61288;53.446;-2.266;2024-03-17T01:05:48;102433.94;;;9.28;100.00
73101;BME280;61288;53.446;-2.266;2024-03-17T01:08:17;102433.94;;;9.28;100.00
73101;BME280;61288;53.446;-2.266;2024-03-17T01:10:44;102431.31;;;9.30;100.00
73101;BME280;61288;53.446;-2.266;2024-03-17T01:13:10;102428.75;;;9.30;100.00
73101;BME280;61288;53.446;-2.266;2024-03-17T01:15:37;102425.28;;;9.31;100.00
73101;BME280;61288;53.446;-2.266;2024-03-17T01:18:04;102419.22;;;9.32;100.00
73101;BME280;61288;53.446;-2.266;2024-03-17T01:20:35;102416.66;;;9.32;100.00
73101;BME280;61288;53.446;-2.266;2024-03-17T01:23:01;102414.94;;;9.31;100.00
73101;BME280;61288;53.446;-2.266;2024-03-17T01:25:27;102420.09;;;9.32;100.00
73101;BME280;61288;53.446;-2.266;2024-03-17T01:27:55;102423.53;;;9.34;100.00
73101;BME280;61288;53.446;-2.266;2024-03-17T01:30:20;102419.25;;;9.33;100.00
73101;BME280;61288;53.446;-2.266;2024-03-17T01:32:46;102408.88;;;9.36;100.00
73101;BME280;61288;53.446;-2.266;2024-03-17T01:35:12;102407.13;;;9.37;100.00
73101;BME280;61288;53.446;-2.266;2024-03-17T01:37:38;102393.31;;;9.38;100.00
73101;BME280;61288;53.446;-2.266;2024-03-17T01:40:06;102389.00;;;9.38;100.00
73101;BME280;61288;53.446;-2.266;2024-03-17T01:42:39;102394.16;;;9.40;100.00
73101;BME280;61288;53.446;-2.266;2024-03-17T01:45:29;102385.56;;;9.39;100.00
73101;BME280;61288;53.446;-2.266;2024-03-17T01:47:56;102373.47;;;9.40;100.00
73101;BME280;61288;53.446;-2.266;2024-03-17T01:50:45;102372.59;;;9.41;100.00
73101;BME280;61288;53.446;-2.266;2024-03-17T01:53:13;102367.41;;;9.41;100.00
73101;BME280;61288;53.446;-2.266;2024-03-17T01:55:43;102362.22;;;9.44;100.00
73101;BME280;61288;53.446;-2.266;2024-03-17T01:58:10;102360.50;;;9.46;100.00
73101;BME280;61288;53.446;-2.266;2024-03-17T02:00:37;102353.56;;;9.47;100.00
73101;BME280;61288;53.446;-2.266;2024-03-17T02:03:07;102351.84;;;9.47;100.00
73101;BME280;61288;53.446;-2.266;2024-03-17T02:05:34;102349.28;;;9.47;100.00
73101;BME280;61288;53.446;-2.266;2024-03-17T02:08:00;102344.06;;;9.49;100.00
73101;BME280;61288;53.446;-2.266;2024-03-17T02:10:27;102342.34;;;9.49;100.00
73101;BME280;61288;53.446;-2.266;2024-03-17T02:12:53;102340.56;;;9.53;100.00
73101;BME280;61288;53.446;-2.266;2024-03-17T02:15:19;102334.56;;;9.52;100.00
73101;BME280;61288;53.446;-2.266;2024-03-17T02:17:46;102326.75;;;9.54;100.00
73101;BME280;61288;53.446;-2.266;2024-03-17T02:20:12;102328.47;;;9.55;100.00
73101;BME280;61288;53.446;-2.266;2024-03-17T02:22:39;102319.84;;;9.56;100.00
73101;BME280;61288;53.446;-2.266;2024-03-17T02:25:06;102316.38;;;9.59;100.00
73101;BME280;61288;53.446;-2.266;2024-03-17T02:27:35;102311.19;;;9.59;100.00
73101;BME280;61288;53.446;-2.266;2024-03-17T02:30:04;102303.41;;;9.60;100.00
73101;BME280;61288;53.446;-2.266;2024-03-17T02:32:34;102303.41;;;9.62;100.00
73101;BME280;61288;53.446;-2.266;2024-03-17T02:34:59;102306.81;;;9.64;100.00
73101;BME280;61288;53.446;-2.266;2024-03-17T02:37:25;102300.75;;;9.66;100.00
73101;BME280;61288;53.446;-2.266;2024-03-17T02:39:50;102299.03;;;9.67;100.00
73101;BME280;61288;53.446;-2.266;2024-03-17T02:42:16;102281.78;;;9.67;100.00
73101;BME280;61288;53.446;-2.266;2024-03-17T02:44:42;102281.75;;;9.69;100.00
73101;BME280;61288;53.446;-2.266;2024-03-17T02:47:08;102281.75;;;9.69;100.00
73101;BME280;61288;53.446;-2.266;2024-03-17T02:49:36;102278.28;;;9.70;100.00
73101;BME280;61288;53.446;-2.266;2024-03-17T02:52:07;102276.53;;;9.72;100.00
73101;BME280;61288;53.446;-2.266;2024-03-17T02:54:36;102275.66;;;9.73;100.00
73101;BME280;61288;53.446;-2.266;2024-03-17T02:57:03;102277.34;;;9.76;100.00
73101;BME280;61288;53.446;-2.266;2024-03-17T02:59:29;102273.00;;;9.78;100.00
73101;BME280;61288;53.446;-2.266;2024-03-17T03:01:54;102268.69;;;9.80;100.00
73101;BME280;61288;53.446;-2.266;2024-03-17T03:04:21;102267.81;;;9.81;100.00
73101;BME280;61288;53.446;-2.266;2024-03-17T03:06:47;102260.88;;;9.83;100.00
73101;BME280;61288;53.446;-2.266;2024-03-17T03:09:13;102253.97;;;9.82;100.00
73101;BME280;61288;53.446;-2.266;2024-03-17T03:11:40;102253.16;;;9.80;100.00
73101;BME280;61288;53.446;-2.266;2024-03-17T03:14:09;102257.44;;;9.81;100.00
73101;BME280;61288;53.446;-2.266;2024-03-17T03:16:34;102265.22;;;9.82;100.00
73101;BME280;61288;53.446;-2.266;2024-03-17T03:19:00;102244.44;;;9.86;100.00
73101;BME280;61288;53.446;-2.266;2024-03-17T03:21:26;102247.03;;;9.86;100.00
73101;BME280;61288;53.446;-2.266;2024-03-17T03:23:51;102253.06;;;9.88;100.00
73101;BME280;61288;53.446;-2.266;2024-03-17T03:26:17;102250.47;;;9.88;100.00
73101;BME280;61288;53.446;-2.266;2024-03-17T03:28:43;102248.75;;;9.87;100.00
73101;BME280;61288;53.446;-2.266;2024-03-17T03:31:13;102250.50;;;9.85;100.00
73101;BME280;61288;53.446;-2.266;2024-03-17T03:33:42;102248.78;;;9.83;100.00
73101;BME280;61288;53.446;-2.266;2024-03-17T03:36:11;102260.88;;;9.85;100.00
73101;BME280;61288;53.446;-2.266;2024-03-17T03:38:38;102254.81;;;9.86;100.00
73101;BME280;61288;53.446;-2.266;2024-03-17T03:41:13;102255.66;;;9.86;100.00
73101;BME280;61288;53.446;-2.266;2024-03-17T03:43:39;102267.72;;;9.89;100.00
73101;BME280;61288;53.446;-2.266;2024-03-17T03:46:05;102258.19;;;9.89;100.00
73101;BME280;61288;53.446;-2.266;2024-03-17T03:48:31;102250.47;;;9.88;100.00
73101;BME280;61288;53.446;-2.266;2024-03-17T03:50:57;102252.19;;;9.89;100.00
73101;BME280;61288;53.446;-2.266;2024-03-17T03:53:24;102252.19;;;9.87;100.00
73101;BME280;61288;53.446;-2.266;2024-03-17T03:55:49;102255.66;;;9.88;100.00
73101;BME280;61288;53.446;-2.266;2024-03-17T03:58:15;102259.94;;;9.89;100.00
73101;BME280;61288;53.446;-2.266;2024-03-17T04:00:41;102258.19;;;9.89;100.00
73101;BME280;61288;53.446;-2.266;2024-03-17T04:03:07;102258.19;;;9.91;100.00
73101;BME280;61288;53.446;-2.266;2024-03-17T04:05:32;102259.03;;;9.91;100.00
73101;BME280;61288;53.446;-2.266;2024-03-17T04:08:00;102252.13;;;9.92;100.00
73101;BME280;61288;53.446;-2.266;2024-03-17T04:10:26;102260.78;;;9.91;100.00
73101;BME280;61288;53.446;-2.266;2024-03-17T04:12:53;102250.38;;;9.92;100.00
73101;BME280;61288;53.446;-2.266;2024-03-17T04:15:19;102251.25;;;9.93;100.00
73101;BME280;61288;53.446;-2.266;2024-03-17T04:17:44;102258.16;;;9.94;100.00
73101;BME280;61288;53.446;-2.266;2024-03-17T04:20:10;102256.44;;;9.94;100.00
73101;BME280;61288;53.446;-2.266;2024-03-17T04:22:40;102254.69;;;9.96;100.00
73101;BME280;61288;53.446;-2.266;2024-03-17T04:25:06;102243.50;;;9.94;100.00
73101;BME280;61288;53.446;-2.266;2024-03-17T04:27:32;102252.13;;;9.92;100.00
73101;BME280;61288;53.446;-2.266;2024-03-17T04:29:58;102242.63;;;9.92;100.00
73101;BME280;61288;53.446;-2.266;2024-03-17T04:32:26;102243.50;;;9.93;100.00
73101;BME280;61288;53.446;-2.266;2024-03-17T04:34:56;102242.63;;;9.92;100.00
73101;BME280;61288;53.446;-2.266;2024-03-17T04:37:22;102245.19;;;9.94;100.00
73101;BME280;61288;53.446;-2.266;2024-03-17T04:39:48;102238.31;;;9.94;100.00
73101;BME280;61288;53.446;-2.266;2024-03-17T04:42:15;102242.63;;;9.94;100.00
73101;BME280;61288;53.446;-2.266;2024-03-17T04:44:41;102246.91;;;9.95;100.00
73101;BME280;61288;53.446;-2.266;2024-03-17T04:47:07;102240.03;;;9.94;100.00
73101;BME280;61288;53.446;-2.266;2024-03-17T04:49:41;102247.78;;;9.95;100.00
73101;BME280;61288;53.446;-2.266;2024-03-17T04:52:08;102240.88;;;9.96;100.00
73101;BME280;61288;53.446;-2.266;2024-03-17T04:54:34;102244.31;;;9.96;100.00
73101;BME280;61288;53.446;-2.266;2024-03-17T04:57:00;102247.78;;;9.95;100.00
73101;BME280;61288;53.446;-2.266;2024-03-17T04:59:27;102244.31;;;9.96;100.00
73101;BME280;61288;53.446;-2.266;2024-03-17T05:01:55;102239.16;;;9.96;100.00
73101;BME280;61288;53.446;-2.266;2024-03-17T05:04:21;102240.03;;;9.95;100.00
73101;BME280;61288;53.446;-2.266;2024-03-17T05:06:50;102234.84;;;9.94;100.00
73101;BME280;61288;53.446;-2.266;2024-03-17T05:09:19;102244.31;;;9.95;100.00
73101;BME280;61288;53.446;-2.266;2024-03-17T05:11:44;102237.44;;;9.95;100.00
73101;BME280;61288;53.446;-2.266;2024-03-17T05:14:10;102248.66;;;9.94;100.00
73101;BME280;61288;53.446;-2.266;2024-03-17T05:16:36;102238.31;;;9.91;100.00
73101;BME280;61288;53.446;-2.266;2024-03-17T05:19:02;102248.66;;;9.93;100.00
73101;BME280;61288;53.446;-2.266;2024-03-17T05:21:29;102249.50;;;9.93;100.00
73101;BME280;61288;53.446;-2.266;2024-03-17T05:23:56;102252.13;;;9.92;100.00
73101;BME280;61288;53.446;-2.266;2024-03-17T05:26:25;102256.44;;;9.91;100.00
73101;BME280;61288;53.446;-2.266;2024-03-17T05:28:51;102257.31;;;9.92;100.00
73101;BME280;61288;53.446;-2.266;2024-03-17T05:31:16;102262.50;;;9.90;100.00
73101;BME280;61288;53.446;-2.266;2024-03-17T05:33:45;102257.34;;;9.89;100.00
73101;BME280;61288;53.446;-2.266;2024-03-17T05:36:11;102263.38;;;9.89;100.00
73101;BME280;61288;53.446;-2.266;2024-03-17T05:38:38;102254.78;;;9.89;100.00
73101;BME280;61288;53.446;-2.266;2024-03-17T05:41:06;102265.13;;;9.87;100.00
73101;BME280;61288;53.446;-2.266;2024-03-17T05:43:33;102264.25;;;9.90;100.00
73101;BME280;61288;53.446;-2.266;2024-03-17T05:46:02;102265.13;;;9.89;100.00
73101;BME280;61288;53.446;-2.266;2024-03-17T05:48:28;102259.06;;;9.90;100.00
73101;BME280;61288;53.446;-2.266;2024-03-17T05:50:55;102255.59;;;9.89;100.00
73101;BME280;61288;53.446;-2.266;2024-03-17T05:53:22;102259.06;;;9.88;100.00
73101;BME280;61288;53.446;-2.266;2024-03-17T05:55:49;102259.13;;;9.87;100.00
73101;BME280;61288;53.446;-2.266;2024-03-17T05:58:15;102258.25;;;9.86;100.00
73101;BME280;61288;53.446;-2.266;2024-03-17T06:00:41;102255.69;;;9.85;100.00
73101;BME280;61288;53.446;-2.266;2024-03-17T06:03:06;102261.75;;;9.83;100.00
73101;BME280;61288;53.446;-2.266;2024-03-17T06:05:33;102250.50;;;9.85;100.00
73101;BME280;61288;53.446;-2.266;2024-03-17T06:08:03;102260.03;;;9.82;100.00
73101;BME280;61288;53.446;-2.266;2024-03-17T06:10:30;102254.84;;;9.81;100.00
73101;BME280;61288;53.446;-2.266;2024-03-17T06:12:59;102259.19;;;9.79;100.00
73101;BME280;61288;53.446;-2.266;2024-03-17T06:15:25;102245.41;;;9.78;100.00
73101;BME280;61288;53.446;-2.266;2024-03-17T06:17:52;102244.53;;;9.79;100.00
73101;BME280;61288;53.446;-2.266;2024-03-17T06:20:25;102247.13;;;9.78;100.00
73101;BME280;61288;53.446;-2.266;2024-03-17T06:22:54;102246.25;;;9.79;100.00
73101;BME280;61288;53.446;-2.266;2024-03-17T06:25:20;102246.25;;;9.79;100.00
73101;BME280;61288;53.446;-2.266;2024-03-17T06:27:50;102243.66;;;9.79;100.00
73101;BME280;61288;53.446;-2.266;2024-03-17T06:30:15;102238.50;;;9.77;100.00
73101;BME280;61288;53.446;-2.266;2024-03-17T06:32:41;102234.19;;;9.78;100.00
73101;BME280;61288;53.446;-2.266;2024-03-17T06:35:10;102229.88;;;9.77;100.00
73101;BME280;61288;53.446;-2.266;2024-03-17T06:37:36;102237.66;;;9.75;100.00
73101;BME280;61288;53.446;-2.266;2024-03-17T06:40:05;102229.94;;;9.74;100.00
73101;BME280;61288;53.446;-2.266;2024-03-17T06:42:31;102240.25;;;9.75;100.00
73101;BME280;61288;53.446;-2.266;2024-03-17T06:45:00;102232.47;;;9.75;100.00
73101;BME280;61288;53.446;-2.266;2024-03-17T06:47:25;102233.34;;;9.76;100.00
73101;BME280;61288;53.446;-2.266;2024-03-17T06:49:51;102230.72;;;9.77;100.00
73101;BME280;61288;53.446;-2.266;2024-03-17T06:52:16;102226.44;;;9.76;100.00
73101;BME280;61288;53.446;-2.266;2024-03-17T06:54:42;102218.66;;;9.78;100.00
73101;BME280;61288;53.446;-2.266;2024-03-17T06:57:08;102215.19;;;9.77;100.00
73101;BME280;61288;53.446;-2.266;2024-03-17T06:59:34;102210.00;;;9.77;100.00
73101;BME280;61288;53.446;-2.266;2024-03-17T07:01:59;102219.53;;;9.78;100.00
73101;BME280;61288;53.446;-2.266;2024-03-17T07:04:25;102210.00;;;9.79;100.00
73101;BME280;61288;53.446;-2.266;2024-03-17T07:06:50;102204.84;;;9.77;100.00
73101;BME280;61288;53.446;-2.266;2024-03-17T07:09:16;102193.63;;;9.78;100.00
73101;BME280;61288;53.446;-2.266;2024-03-17T07:11:43;102196.22;;;9.78;100.00
73101;BME280;61288;53.446;-2.266;2024-03-17T07:14:09;102192.75;;;9.79;100.00
73101;BME280;61288;53.446;-2.266;2024-03-17T07:16:35;102184.13;;;9.80;100.00
73101;BME280;61288;53.446;-2.266;2024-03-17T07:19:02;102169.47;;;9.79;100.00
73101;BME280;61288;53.446;-2.266;2024-03-17T07:21:29;102172.88;;;9.80;100.00
73101;BME280;61288;53.446;-2.266;2024-03-17T07:23:54;102160.81;;;9.80;100.00
73101;BME280;61288;53.446;-2.266;2024-03-17T07:26:20;102169.41;;;9.82;100.00
73101;BME280;61288;53.446;-2.266;2024-03-17T07:28:46;102166.84;;;9.82;100.00
73101;BME280;61288;53.446;-2.266;2024-03-17T07:31:13;102162.50;;;9.83;100.00
73101;BME280;61288;53.446;-2.266;2024-03-17T07:33:38;102157.31;;;9.85;100.00
73101;BME280;61288;53.446;-2.266;2024-03-17T07:36:03;102160.72;;;9.85;100.00
73101;BME280;61288;53.446;-2.266;2024-03-17T07:38:30;102161.59;;;9.86;100.00
73101;BME280;61288;53.446;-2.266;2024-03-17T07:41:00;102159.84;;;9.86;100.00
73101;BME280;61288;53.446;-2.266;2024-03-17T07:43:26;102163.31;;;9.85;100.00
73101;BME280;61288;53.446;-2.266;2024-03-17T07:46:03;102165.03;;;9.86;100.00
73101;BME280;61288;53.446;-2.266;2024-03-17T07:48:36;102160.72;;;9.85;100.00
73101;BME280;61288;53.446;-2.266;2024-03-17T07:51:04;102152.97;;;9.87;100.00
73101;BME280;61288;53.446;-2.266;2024-03-17T07:53:30;102153.78;;;9.89;100.00
73101;BME280;61288;53.446;-2.266;2024-03-17T07:56:07;102144.28;;;9.91;100.00
73101;BME280;61288;53.446;-2.266;2024-03-17T07:58:36;102138.22;;;9.92;100.00
73101;BME280;61288;53.446;-2.266;2024-03-17T08:01:05;102127.84;;;9.92;100.00
73101;BME280;61288;53.446;-2.266;2024-03-17T08:03:32;102133.88;;;9.94;100.00
73101;BME280;61288;53.446;-2.266;2024-03-17T08:05:58;102124.34;;;9.96;100.00
73101;BME280;61288;53.446;-2.266;2024-03-17T08:08:24;102125.16;;;9.98;100.00
73101;BME280;61288;53.446;-2.266;2024-03-17T08:10:50;102119.97;;;10.00;100.00
73101;BME280;61288;53.446;-2.266;2024-03-17T08:13:17;102115.59;;;10.03;100.00
73101;BME280;61288;53.446;-2.266;2024-03-17T08:15:54;102111.25;;;10.05;100.00
73101;BME280;61288;53.446;-2.266;2024-03-17T08:18:20;102109.47;;;10.09;100.00
73101;BME280;61288;53.446;-2.266;2024-03-17T08:20:46;102111.19;;;10.10;100.00
73101;BME280;61288;53.446;-2.266;2024-03-17T08:23:12;102112.00;;;10.14;100.00
73101;BME280;61288;53.446;-2.266;2024-03-17T08:25:38;102105.91;;;10.16;100.00
73101;BME280;61288;53.446;-2.266;2024-03-17T08:28:05;102107.59;;;10.17;100.00
73101;BME280;61288;53.446;-2.266;2024-03-17T08:30:30;102106.72;;;10.18;100.00
73101;BME280;61288;53.446;-2.266;2024-03-17T08:32:56;102095.47;;;10.19;100.00
73101;BME280;61288;53.446;-2.266;2024-03-17T08:35:22;102103.25;;;10.21;100.00
73101;BME280;61288;53.446;-2.266;2024-03-17T08:37:47;102097.19;;;10.22;100.00
73101;BME280;61288;53.446;-2.266;2024-03-17T08:40:13;102091.94;;;10.23;100.00
73101;BME280;61288;53.446;-2.266;2024-03-17T08:42:39;102099.66;;;10.26;100.00
73101;BME280;61288;53.446;-2.266;2024-03-17T08:45:05;102104.00;;;10.28;100.00
73101;BME280;61288;53.446;-2.266;2024-03-17T08:47:31;102094.47;;;10.28;100.00
73101;BME280;61288;53.446;-2.266;2024-03-17T08:49:57;102088.41;;;10.29;100.00
73101;BME280;61288;53.446;-2.266;2024-03-17T08:52:23;102097.88;;;10.32;100.00
73101;BME280;61288;53.446;-2.266;2024-03-17T08:54:49;102090.94;;;10.34;100.00
73101;BME280;61288;53.446;-2.266;2024-03-17T08:57:17;102090.88;;;10.37;100.00
73101;BME280;61288;53.446;-2.266;2024-03-17T08:59:46;102089.09;;;10.40;100.00
73101;BME280;61288;53.446;-2.266;2024-03-17T09:02:13;102089.06;;;10.44;100.00
73101;BME280;61288;53.446;-2.266;2024-03-17T09:04:43;102102.81;;;10.47;100.00
73101;BME280;61288;53.446;-2.266;2024-03-17T09:07:09;102101.03;;;10.51;100.00
73101;BME280;61288;53.446;-2.266;2024-03-17T09:09:34;102099.28;;;10.53;100.00
73101;BME280;61288;53.446;-2.266;2024-03-17T09:12:00;102106.09;;;10.57;100.00
73101;BME280;61288;53.446;-2.266;2024-03-17T09:14:26;102096.56;;;10.59;100.00
73101;BME280;61288;53.446;-2.266;2024-03-17T09:16:51;102097.44;;;10.58;100.00
73101;BME280;61288;53.446;-2.266;2024-03-17T09:19:17;102105.16;;;10.63;100.00
73101;BME280;61288;53.446;-2.266;2024-03-17T09:21:42;102099.94;;;10.64;100.00
73101;BME280;61288;53.446;-2.266;2024-03-17T09:24:08;102101.56;;;10.70;100.00
73101;BME280;61288;53.446;-2.266;2024-03-17T09:26:34;102104.84;;;10.78;100.00
73101;BME280;61288;53.446;-2.266;2024-03-17T09:29:00;102092.69;;;10.82;100.00
73101;BME280;61288;53.446;-2.266;2024-03-17T09:31:26;102095.16;;;10.88;100.00
73101;BME280;61288;53.446;-2.266;2024-03-17T09:33:51;102095.06;;;10.93;100.00
73101;BME280;61288;53.446;-2.266;2024-03-17T09:36:17;102087.25;;;10.96;100.00
73101;BME280;61288;53.446;-2.266;2024-03-17T09:38:44;102098.28;;;11.06;100.00
73101;BME280;61288;53.446;-2.266;2024-03-17T09:41:20;102090.28;;;11.17;100.00
73101;BME280;61288;53.446;-2.266;2024-03-17T09:43:47;102101.41;;;11.22;100.00
73101;BME280;61288;53.446;-2.266;2024-03-17T09:46:15;102095.25;;;11.27;100.00
73101;BME280;61288;53.446;-2.266;2024-03-17T09:48:41;102095.09;;;11.35;100.00
73101;BME280;61288;53.446;-2.266;2024-03-17T09:51:18;102097.19;;;11.57;100.00
73101;BME280;61288;53.446;-2.266;2024-03-17T09:53:44;102107.97;;;11.79;100.00
73101;BME280;61288;53.446;-2.266;2024-03-17T09:56:11;102107.47;;;12.03;100.00
73101;BME280;61288;53.446;-2.266;2024-03-17T09:58:40;102107.34;;;12.42;100.00
73101;BME280;61288;53.446;-2.266;2024-03-17T10:01:05;102100.00;;;12.90;100.00
73101;BME280;61288;53.446;-2.266;2024-03-17T10:03:45;102101.53;;;13.28;100.00
73101;BME280;61288;53.446;-2.266;2024-03-17T10:06:14;102095.00;;;13.45;100.00
73101;BME280;61288;53.446;-2.266;2024-03-17T10:08:51;102088.59;;;13.55;100.00
73101;BME280;61288;53.446;-2.266;2024-03-17T10:11:22;102082.97;;;13.39;100.00
73101;BME280;61288;53.446;-2.266;2024-03-17T10:14:09;102075.09;;;13.12;100.00
73101;BME280;61288;53.446;-2.266;2024-03-17T10:16:36;102058.28;;;12.94;100.00
73101;BME280;61288;53.446;-2.266;2024-03-17T10:21:43;102052.69;;;13.07;100.00
73101;BME280;61288;53.446;-2.266;2024-03-17T10:24:12;102048.53;;;13.01;100.00
73101;BME280;61288;53.446;-2.266;2024-03-17T10:26:49;102048.88;;;12.89;100.00
73101;BME280;61288;53.446;-2.266;2024-03-17T10:29:33;102039.31;;;12.59;100.00
73101;BME280;61288;53.446;-2.266;2024-03-17T10:32:15;102048.25;;;12.49;100.00
73101;BME280;61288;53.446;-2.266;2024-03-17T10:34:42;102037.78;;;12.52;100.00
73101;BME280;61288;53.446;-2.266;2024-03-17T10:37:18;102048.19;;;12.50;100.00
73101;BME280;61288;53.446;-2.266;2024-03-17T10:39:50;102045.59;;;12.50;100.00
73101;BME280;61288;53.446;-2.266;2024-03-17T10:42:25;102036.38;;;12.38;100.00
73101;BME280;61288;53.446;-2.266;2024-03-17T10:44:54;102021.75;;;12.34;100.00
73101;BME280;61288;53.446;-2.266;2024-03-17T10:47:23;102015.72;;;12.34;100.00
73101;BME280;61288;53.446;-2.266;2024-03-17T10:49:55;102000.38;;;12.24;100.00
73101;BME280;61288;53.446;-2.266;2024-03-17T10:52:23;102000.41;;;12.23;100.00
73101;BME280;61288;53.446;-2.266;2024-03-17T10:54:54;101991.97;;;12.15;100.00
73101;BME280;61288;53.446;-2.266;2024-03-17T10:57:44;101984.22;;;12.13;100.00
73101;BME280;61288;53.446;-2.266;2024-03-17T11:00:12;101985.03;;;12.15;100.00
73101;BME280;61288;53.446;-2.266;2024-03-17T11:02:44;101979.72;;;12.20;100.00
73101;BME280;61288;53.446;-2.266;2024-03-17T11:05:14;101971.66;;;12.29;100.00
73101;BME280;61288;53.446;-2.266;2024-03-17T11:07:41;101958.50;;;12.35;100.00
73101;BME280;61288;53.446;-2.266;2024-03-17T11:12:50;101953.97;;;12.44;100.00
73101;BME280;61288;53.446;-2.266;2024-03-17T11:20:41;101946.63;;;12.26;100.00
73101;BME280;61288;53.446;-2.266;2024-03-17T11:23:07;101950.84;;;12.31;100.00
73101;BME280;61288;53.446;-2.266;2024-03-17T11:28:09;101951.03;;;12.54;100.00
73101;BME280;61288;53.446;-2.266;2024-03-17T11:47:02;101943.97;;;12.60;100.00
73101;BME280;61288;53.446;-2.266;2024-03-17T11:49:36;101947.41;;;12.60;100.00
73101;BME280;61288;53.446;-2.266;2024-03-17T11:52:17;101945.06;;;12.51;100.00
73101;BME280;61288;53.446;-2.266;2024-03-17T11:54:45;101943.50;;;12.45;100.00
73101;BME280;61288;53.446;-2.266;2024-03-17T11:57:20;101943.28;;;12.53;100.00
73101;BME280;61288;53.446;-2.266;2024-03-17T11:59:48;101936.22;;;12.56;100.00
73101;BME280;61288;53.446;-2.266;2024-03-17T12:02:27;101929.97;;;12.64;100.00
73101;BME280;61288;53.446;-2.266;2024-03-17T12:04:56;101924.41;;;12.76;100.00
73101;BME280;61288;53.446;-2.266;2024-03-17T12:07:22;101920.19;;;12.72;100.00
73101;BME280;61288;53.446;-2.266;2024-03-17T12:09:52;101919.91;;;12.81;100.00
73101;BME280;61288;53.446;-2.266;2024-03-17T12:12:25;101913.56;;;12.90;100.00
73101;BME280;61288;53.446;-2.266;2024-03-17T12:15:00;101911.69;;;12.95;100.00
73101;BME280;61288;53.446;-2.266;2024-03-17T12:17:25;101908.94;;;13.00;100.00
73101;BME280;61288;53.446;-2.266;2024-03-17T12:19:51;101901.97;;;13.00;100.00
73101;BME280;61288;53.446;-2.266;2024-03-17T12:22:23;101899.34;;;13.02;100.00
73101;BME280;61288;53.446;-2.266;2024-03-17T12:24:56;101898.94;;;13.14;100.00
73101;BME280;61288;53.446;-2.266;2024-03-17T12:27:25;101899.38;;;13.27;100.00
73101;BME280;61288;53.446;-2.266;2024-03-17T12:29:54;101886.97;;;13.36;100.00
73101;BME280;61288;53.446;-2.266;2024-03-17T12:32:22;101888.78;;;13.34;100.00
73101;BME280;61288;53.446;-2.266;2024-03-17T12:34:52;101887.72;;;13.39;100.00
73101;BME280;61288;53.446;-2.266;2024-03-17T12:37:21;101881.81;;;13.34;100.00
73101;BME280;61288;53.446;-2.266;2024-03-17T12:39:50;101881.63;;;13.40;100.00
73101;BME280;61288;53.446;-2.266;2024-03-17T12:42:18;101871.25;;;13.39;100.00
73101;BME280;61288;53.446;-2.266;2024-03-17T12:44:58;101868.16;;;13.54;100.00
73101;BME280;61288;53.446;-2.266;2024-03-17T12:47:33;101867.84;;;13.64;100.00
73101;BME280;61288;53.446;-2.266;2024-03-17T12:50:01;101852.97;;;13.67;100.00
73101;BME280;61288;53.446;-2.266;2024-03-17T12:52:34;101857.19;;;13.70;100.00
73101;BME280;61288;53.446;-2.266;2024-03-17T13:01:01;101850.97;;;13.99;100.00
73101;BME280;61288;53.446;-2.266;2024-03-17T13:03:32;101840.44;;;14.03;100.00
73101;BME280;61288;53.446;-2.266;2024-03-17T13:05:59;101838.13;;;14.17;100.00
73101;BME280;61288;53.446;-2.266;2024-03-17T13:08:26;101833.88;;;14.38;100.00
73101;BME280;61288;53.446;-2.266;2024-03-17T13:10:52;101825.09;;;14.41;100.00
73101;BME280;61288;53.446;-2.266;2024-03-17T13:13:18;101813.13;;;14.35;100.00